createdAt,value
2022-09-04T00:00:58.479Z,101722.69
2022-09-04T00:04:00.812Z,101722.75
2022-09-04T00:06:43.145Z,101724.50
2022-09-04T00:09:37.531Z,101723.72
2022-09-04T00:12:10.194Z,101721.97
2022-09-04T00:14:50.788Z,101717.56
2022-09-04T00:17:45.162Z,101723.78
2022-09-04T00:20:40.365Z,101725.63
2022-09-04T00:23:59.618Z,101724.84
2022-09-04T00:26:58.178Z,101732.88
2022-09-04T00:29:36.558Z,101731.13
2022-09-04T00:32:20.079Z,101733.88
2022-09-04T00:35:08.685Z,101738.41
2022-09-04T00:37:54.718Z,101734.97
2022-09-04T00:40:38.761Z,101735.88
2022-09-04T00:43:59.362Z,101741.19
2022-09-04T00:46:52.050Z,101742.13
2022-09-04T00:49:57.539Z,101743.84
2022-09-04T00:53:09.850Z,101744.84
2022-09-04T00:55:54.244Z,101750.13
2022-09-04T00:59:16.066Z,101748.50
2022-09-04T01:01:48.333Z,101758.25
2022-09-04T01:04:32.791Z,101750.34
2022-09-04T01:07:59.362Z,101755.69
2022-09-04T01:11:08.927Z,101756.66
2022-09-04T01:14:26.393Z,101759.38
2022-09-04T01:17:32.358Z,101769.09
2022-09-04T01:20:22.384Z,101767.38
2022-09-04T01:23:08.897Z,101773.47
2022-09-04T01:26:08.113Z,101770.91
2022-09-04T01:29:16.303Z,101771.03
2022-09-04T01:32:29.446Z,101766.66
2022-09-04T01:35:34.380Z,101770.25
2022-09-04T01:38:16.729Z,101769.34
2022-09-04T01:41:07.457Z,101758.81
2022-09-04T01:43:40.444Z,101754.53
2022-09-04T01:47:01.238Z,101759.94
2022-09-04T01:49:54.356Z,101759.25
2022-09-04T01:52:45.727Z,101768.97
2022-09-04T01:55:32.321Z,101768.97
2022-09-04T01:58:40.555Z,101769.03
2022-09-04T02:01:48.973Z,101773.47
2022-09-04T02:05:03.076Z,101772.69
2022-09-04T02:08:06.341Z,101776.22
2022-09-04T02:11:15.056Z,101777.09
2022-09-04T02:14:17.867Z,101790.34
2022-09-04T02:17:18.530Z,101785.97
2022-09-04T02:20:23.831Z,101790.41
2022-09-04T02:23:26.498Z,101794.84
2022-09-04T02:26:24.614Z,101787.81
2022-09-04T02:29:46.450Z,101792.31
2022-09-04T02:33:00.100Z,101786.16
2022-09-04T02:35:53.158Z,101790.53
2022-09-04T02:38:42.927Z,101789.69
2022-09-04T02:42:03.893Z,101787.06
2022-09-04T02:45:00.408Z,101789.72
2022-09-04T02:48:02.359Z,101792.41
2022-09-04T02:50:59.664Z,101794.22
2022-09-04T02:53:50.354Z,101792.50
2022-09-04T02:57:20.422Z,101790.81
2022-09-04T03:00:40.414Z,101796.16
2022-09-04T03:03:46.054Z,101794.47
2022-09-04T03:06:33.210Z,101794.47
2022-09-04T03:09:16.979Z,101798.94
2022-09-04T03:12:08.721Z,101804.25
2022-09-04T03:14:54.392Z,101803.38
2022-09-04T03:17:57.898Z,101807.81
2022-09-04T03:20:36.851Z,101798.22
2022-09-04T03:23:39.810Z,101800.94
2022-09-04T03:26:32.504Z,101802.72
2022-09-04T03:29:16.920Z,101800.06
2022-09-04T03:32:15.638Z,101792.19
2022-09-04T03:35:03.211Z,101792.28
2022-09-04T03:37:59.283Z,101792.28
2022-09-04T03:40:34.186Z,101794.03
2022-09-04T03:43:45.085Z,101802.88
2022-09-04T03:46:54.056Z,101811.72
2022-09-04T03:49:59.103Z,101809.06
2022-09-04T03:52:55.969Z,101814.44
2022-09-04T03:56:17.265Z,101818.91
2022-09-04T03:59:21.151Z,101819.81
2022-09-04T04:02:27.942Z,101818.94
2022-09-04T04:05:18.741Z,101826.84
2022-09-04T04:08:04.694Z,101824.22
2022-09-04T04:11:54.979Z,101831.31
2022-09-04T04:15:10.460Z,101843.63
2022-09-04T04:17:56.549Z,101845.38
2022-09-04T04:20:57.412Z,101837.47
2022-09-04T04:24:06.013Z,101843.63
2022-09-04T04:26:58.716Z,101848.00
2022-09-04T04:30:02.227Z,101856.81
2022-09-04T04:33:09.034Z,101850.66
2022-09-04T04:36:13.307Z,101848.91
2022-09-04T04:39:09.962Z,101850.66
2022-09-04T04:42:15.442Z,101853.31
2022-09-04T04:45:50.303Z,101861.28
2022-09-04T04:49:22.677Z,101869.19
2022-09-04T04:52:24.164Z,101874.47
2022-09-04T04:55:26.505Z,101876.25
2022-09-04T04:58:42.276Z,101874.47
2022-09-04T05:01:36.089Z,101884.13
2022-09-04T05:04:33.058Z,101876.25
2022-09-04T05:07:38.261Z,101879.75
2022-09-04T05:10:34.758Z,101881.47
2022-09-04T05:13:40.265Z,101884.91
2022-09-04T05:16:23.191Z,101886.63
2022-09-04T05:19:31.448Z,101888.34
2022-09-04T05:22:36.882Z,101895.34
2022-09-04T05:25:39.281Z,101903.25
2022-09-04T05:28:32.977Z,101897.06
2022-09-04T05:31:38.726Z,101909.34
2022-09-04T05:35:09.709Z,101911.94
2022-09-04T05:38:16.274Z,101925.97
2022-09-04T05:41:35.332Z,101915.38
2022-09-04T05:44:35.122Z,101918.00
2022-09-04T05:47:29.857Z,101925.03
2022-09-04T05:50:41.255Z,101919.72
2022-09-04T05:53:45.834Z,101930.28
2022-09-04T05:57:08.065Z,101928.53
2022-09-04T05:59:54.924Z,101934.69
2022-09-04T06:02:59.556Z,101929.41
2022-09-04T06:06:04.419Z,101932.03
2022-09-04T06:09:13.986Z,101920.56
2022-09-04T06:12:29.796Z,101924.84
2022-09-04T06:15:19.908Z,101916.81
2022-09-04T06:18:33.404Z,101924.69
2022-09-04T06:21:23.249Z,101927.22
2022-09-04T06:24:36.956Z,101930.66
2022-09-04T06:27:27.283Z,101935.81
2022-09-04T06:30:17.846Z,101930.53
2022-09-04T06:33:15.543Z,101933.97
2022-09-04T06:36:48.271Z,101931.22
2022-09-04T06:39:49.300Z,101939.03
2022-09-04T06:43:08.794Z,101935.47
2022-09-04T06:46:16.260Z,101941.56
2022-09-04T06:48:57.303Z,101945.81
2022-09-04T06:52:03.350Z,101948.41
2022-09-04T06:55:05.108Z,101957.88
2022-09-04T06:58:01.514Z,101971.84
2022-09-04T07:00:53.484Z,101968.13
2022-09-04T07:03:46.519Z,101974.13
2022-09-04T07:06:50.354Z,101974.81
2022-09-04T07:09:32.903Z,101977.19
2022-09-04T07:12:33.679Z,101971.66
2022-09-04T07:15:38.767Z,101984.63
2022-09-04T07:18:44.886Z,101982.59
2022-09-04T07:22:01.710Z,101976.91
2022-09-04T07:25:10.125Z,101987.88
2022-09-04T07:28:09.491Z,101986.75
2022-09-04T07:30:58.538Z,101984.38
2022-09-04T07:33:42.222Z,101985.44
2022-09-04T07:36:31.879Z,101984.00
2022-09-04T07:39:29.784Z,101991.16
2022-09-04T07:42:10.370Z,101992.84
2022-09-04T07:45:01.994Z,101994.16
2022-09-04T07:47:47.653Z,101996.69
2022-09-04T07:50:35.616Z,101993.97
2022-09-04T07:54:22.662Z,101986.09
2022-09-04T07:57:09.746Z,101990.19
2022-09-04T07:59:53.829Z,101995.13
2022-09-04T08:02:57.590Z,101992.88
2022-09-04T08:05:41.434Z,101995.59
2022-09-04T08:09:07.268Z,102004.50
2022-09-04T08:11:51.523Z,102001.06
2022-09-04T08:14:39.018Z,102002.13
2022-09-04T08:17:57.010Z,102000.16
2022-09-04T08:20:38.712Z,101998.94
2022-09-04T08:23:42.626Z,102001.19
2022-09-04T08:26:50.264Z,102006.75
2022-09-04T08:30:04.801Z,102002.31
2022-09-04T08:32:56.579Z,102010.31
2022-09-04T08:35:55.101Z,102003.03
2022-09-04T08:39:07.363Z,102018.94
2022-09-04T08:42:06.295Z,102005.94
2022-09-04T08:45:35.067Z,102005.97
2022-09-04T08:48:49.040Z,102010.09
2022-09-04T08:52:01.087Z,101999.56
2022-09-04T08:55:07.396Z,102009.38
2022-09-04T08:57:59.339Z,102010.97
2022-09-04T09:01:05.256Z,102006.13
2022-09-04T09:04:14.402Z,102010.00
2022-09-04T09:07:30.612Z,102012.41
2022-09-04T09:10:56.774Z,102018.53
2022-09-04T09:13:49.238Z,102014.59
2022-09-04T09:16:53.060Z,102011.41
2022-09-04T09:19:33.851Z,102004.25
2022-09-04T09:23:02.365Z,102008.78
2022-09-04T09:25:46.055Z,102007.72
2022-09-04T09:29:05.330Z,102005.22
2022-09-04T09:32:28.989Z,102007.28
2022-09-04T09:35:46.406Z,102004.03
2022-09-04T09:38:59.784Z,102005.78
2022-09-04T09:42:23.570Z,102005.75
2022-09-04T09:45:14.747Z,101996.97
2022-09-04T09:48:21.218Z,102005.75
2022-09-04T09:51:36.964Z,102006.63
2022-09-04T09:54:30.491Z,102012.78
2022-09-04T09:58:00.700Z,101999.25
2022-09-04T10:00:52.558Z,102003.41
2022-09-04T10:04:11.984Z,102001.69
2022-09-04T10:07:10.979Z,102001.13
2022-09-04T10:10:27.805Z,101992.59
2022-09-04T10:13:31.164Z,101999.78
2022-09-04T10:16:44.254Z,101992.03
2022-09-04T10:19:54.433Z,102001.44
2022-09-04T10:22:52.570Z,101995.34
2022-09-04T10:26:18.402Z,101984.63
2022-09-04T10:29:30.299Z,101995.59
2022-09-04T10:32:25.803Z,101995.66
2022-09-04T10:35:43.332Z,102006.91
2022-09-04T10:39:03.593Z,102002.09
2022-09-04T10:42:04.685Z,101998.94
2022-09-04T10:44:45.079Z,101997.00
2022-09-04T10:47:26.793Z,102001.38
2022-09-04T10:50:23.508Z,101995.00
2022-09-04T10:53:40.612Z,101987.91
2022-09-04T10:56:42.074Z,101994.44
2022-09-04T10:59:44.822Z,101995.84
2022-09-04T11:03:06.669Z,101998.34
2022-09-04T11:06:02.831Z,101991.00
2022-09-04T11:08:51.858Z,101989.38
2022-09-04T11:11:58.741Z,101986.34
2022-09-04T11:15:01.861Z,101974.78
2022-09-04T11:17:57.447Z,101975.97
2022-09-04T11:21:09.944Z,101975.63
2022-09-04T11:24:12.668Z,101981.78
2022-09-04T11:27:20.442Z,101977.78
2022-09-04T11:30:07.350Z,101981.13
2022-09-04T11:33:21.994Z,101979.66
2022-09-04T11:36:27.247Z,101980.97
2022-09-04T11:39:38.121Z,101973.56
2022-09-04T11:42:21.970Z,101974.03
2022-09-04T11:45:38.981Z,101967.19
2022-09-04T11:48:42.181Z,101966.75
2022-09-04T11:51:40.653Z,101981.03
2022-09-04T11:54:33.914Z,101962.94
2022-09-04T11:57:28.680Z,101964.38
2022-09-04T12:00:09.587Z,101959.16
2022-09-04T12:03:09.208Z,101950.44
2022-09-04T12:06:05.565Z,101949.44
2022-09-04T12:09:17.660Z,101948.13
2022-09-04T12:12:34.584Z,101944.97
2022-09-04T12:15:32.504Z,101941.47
2022-09-04T12:18:37.342Z,101947.88
2022-09-04T12:22:14.660Z,101950.13
2022-09-04T12:25:13.689Z,101953.63
2022-09-04T12:28:40.208Z,101951.75
2022-09-04T12:31:55.251Z,101943.22
2022-09-04T12:34:45.965Z,101947.03
2022-09-04T12:38:13.684Z,101942.88
2022-09-04T12:41:40.535Z,101942.22
2022-09-04T12:44:43.699Z,101951.94
2022-09-04T12:47:41.786Z,101954.91
2022-09-04T12:50:47.816Z,101946.63
2022-09-04T12:53:58.810Z,101949.22
2022-09-04T12:57:08.246Z,101952.97
2022-09-04T13:00:01.546Z,101960.44
2022-09-04T13:02:45.049Z,101953.22
2022-09-04T13:05:36.037Z,101955.75
2022-09-04T13:08:29.171Z,101957.00
2022-09-04T13:11:28.016Z,101958.44
2022-09-04T13:14:32.010Z,101966.16
2022-09-04T13:17:58.535Z,101960.56
2022-09-04T13:20:49.145Z,101960.69
2022-09-04T13:24:09.107Z,101970.84
2022-09-04T13:27:04.797Z,101971.38
2022-09-04T13:30:03.337Z,101970.44
2022-09-04T13:32:50.786Z,101971.72
2022-09-04T13:35:59.402Z,101966.25
2022-09-04T13:39:05.185Z,101965.69
2022-09-04T13:42:13.802Z,101975.13
2022-09-04T13:44:58.687Z,101980.97
2022-09-04T13:47:41.308Z,101976.72
2022-09-04T13:50:25.719Z,101971.84
2022-09-04T13:53:12.252Z,101973.66
2022-09-04T13:56:01.299Z,101975.38
2022-09-04T13:58:51.315Z,101977.44
2022-09-04T14:01:27.988Z,101978.88
2022-09-04T14:04:07.917Z,101972.94
2022-09-04T14:06:39.929Z,101961.44
2022-09-04T14:09:12.302Z,101973.19
2022-09-04T14:12:20.661Z,101974.88
2022-09-04T14:15:10.288Z,101969.53
2022-09-04T14:17:50.870Z,101977.78
2022-09-04T14:20:42.964Z,101978.94
2022-09-04T14:24:03.385Z,101977.81
2022-09-04T14:26:57.625Z,101975.28
2022-09-04T14:30:02.390Z,101979.16
2022-09-04T14:32:56.799Z,101969.06
2022-09-04T14:36:21.826Z,101973.28
2022-09-04T14:39:06.675Z,101980.97
2022-09-04T14:41:54.498Z,101972.44
2022-09-04T14:44:48.154Z,101964.59
2022-09-04T14:47:29.914Z,101969.09
2022-09-04T14:50:03.271Z,101968.91
2022-09-04T14:52:51.156Z,101979.94
2022-09-04T14:55:40.562Z,101972.84
2022-09-04T14:58:25.232Z,101972.59
2022-09-04T15:01:17.462Z,101974.19
2022-09-04T15:04:10.432Z,101974.06
2022-09-04T15:07:12.149Z,101976.63
2022-09-04T15:09:49.135Z,101973.09
2022-09-04T15:12:37.842Z,101973.84
2022-09-04T15:15:43.212Z,101969.91
2022-09-04T15:18:45.674Z,101972.97
2022-09-04T15:21:46.822Z,101988.16
2022-09-04T15:24:35.017Z,101980.09
2022-09-04T15:27:28.981Z,101980.56
2022-09-04T15:30:04.673Z,101977.88
2022-09-04T15:32:42.693Z,101977.41
2022-09-04T15:35:33.702Z,101986.25
2022-09-04T15:38:22.113Z,101980.59
2022-09-04T15:41:19.855Z,101992.19
2022-09-04T15:44:15.786Z,101977.63
2022-09-04T15:47:06.956Z,101980.13
2022-09-04T15:49:56.759Z,101978.16
2022-09-04T15:52:44.120Z,101986.69
2022-09-04T15:55:27.189Z,101976.28
2022-09-04T15:58:25.593Z,101978.03
2022-09-04T16:01:06.391Z,101975.03
2022-09-04T16:04:07.599Z,101978.22
2022-09-04T16:06:48.003Z,101978.69
2022-09-04T16:09:40.021Z,101978.03
2022-09-04T16:12:20.818Z,101982.88
2022-09-04T16:15:18.450Z,101986.25
2022-09-04T16:17:55.763Z,101986.25
2022-09-04T16:20:52.587Z,101983.06
2022-09-04T16:23:36.121Z,101981.31
2022-09-04T16:26:27.999Z,101982.00
2022-09-04T16:29:17.785Z,101980.97
2022-09-04T16:31:55.234Z,101984.34
2022-09-04T16:34:33.018Z,101980.97
2022-09-04T16:37:29.640Z,101989.03
2022-09-04T16:40:29.192Z,101985.25
2022-09-04T16:43:27.990Z,101983.38
2022-09-04T16:46:15.039Z,101984.25
2022-09-04T16:49:20.699Z,101986.28
2022-09-04T16:52:34.545Z,101985.94
2022-09-04T16:55:30.039Z,101988.53
2022-09-04T16:58:11.147Z,101992.56
2022-09-04T17:01:27.522Z,101992.81
2022-09-04T17:04:40.071Z,102003.88
2022-09-04T17:07:53.757Z,101995.44
2022-09-04T17:11:14.162Z,102006.56
2022-09-04T17:14:08.866Z,101997.19
2022-09-04T17:17:29.863Z,101998.38
2022-09-04T17:20:09.934Z,102003.94
2022-09-04T17:28:56.116Z,102004.16
2022-09-04T17:29:15.231Z,102007.31
2022-09-04T17:29:34.957Z,102010.31
2022-09-04T17:34:53.266Z,102015.91
2022-09-04T17:40:32.918Z,102011.00
2022-09-04T17:40:46.825Z,102014.13
2022-09-04T17:42:20.384Z,102013.66
2022-09-04T17:45:11.222Z,102016.53
2022-09-04T17:47:43.837Z,102023.16
2022-09-04T17:50:22.710Z,102018.22
2022-09-04T17:53:02.601Z,102020.25
2022-09-04T17:55:47.558Z,102024.16
2022-09-04T17:58:47.477Z,102019.34
2022-09-04T18:01:29.873Z,102022.41
2022-09-04T18:04:20.271Z,102019.22
2022-09-04T18:07:51.033Z,102022.19
2022-09-04T18:10:29.470Z,102026.88
2022-09-04T18:13:30.431Z,102028.09
2022-09-04T18:16:39.921Z,102031.09
2022-09-04T18:19:34.386Z,102037.56
2022-09-04T18:22:45.532Z,102037.13
2022-09-04T18:25:30.994Z,102040.94
2022-09-04T18:28:28.749Z,102053.59
2022-09-04T18:37:05.965Z,102047.78
2022-09-04T18:37:21.161Z,102053.53
2022-09-04T18:37:54.456Z,102053.88
2022-09-04T18:42:57.582Z,102052.19
2022-09-04T18:50:27.930Z,102050.78
2022-09-04T18:50:28.926Z,102052.28
2022-09-04T18:50:31.177Z,102049.34
2022-09-04T18:53:08.204Z,102049.94
2022-09-04T18:55:48.976Z,102053.69
2022-09-04T18:58:56.975Z,102057.41
2022-09-04T19:01:43.500Z,102059.28
2022-09-04T19:05:08.950Z,102065.13
2022-09-04T19:07:46.678Z,102064.56
2022-09-04T19:10:25.652Z,102067.53
2022-09-04T19:13:20.838Z,102074.78
2022-09-04T19:16:41.199Z,102071.50
2022-09-04T19:19:30.650Z,102069.84
2022-09-04T19:22:12.927Z,102083.41
2022-09-04T19:25:12.316Z,102085.34
2022-09-04T19:27:46.806Z,102086.41
2022-09-04T19:30:23.890Z,102085.59
2022-09-04T19:33:18.274Z,102095.44
2022-09-04T19:36:32.220Z,102091.28
2022-09-04T19:45:56.493Z,102098.63
2022-09-04T19:46:03.404Z,102089.13
2022-09-04T19:46:11.848Z,102091.97
2022-09-04T19:49:30.056Z,102100.13
2022-09-04T19:53:23.933Z,102102.91
2022-09-04T19:55:24.947Z,102105.69
2022-09-04T19:58:14.151Z,102110.31
2022-09-04T20:00:58.367Z,102106.06
2022-09-04T20:03:46.169Z,102107.97
2022-09-04T20:06:30.358Z,102111.63
2022-09-04T20:09:51.548Z,102115.22
2022-09-04T20:12:43.113Z,102108.41
2022-09-04T20:15:31.540Z,102116.53
2022-09-04T20:18:21.326Z,102123.78
2022-09-04T20:21:08.734Z,102125.66
2022-09-04T20:23:52.754Z,102124.97
2022-09-04T20:27:01.335Z,102128.75
2022-09-04T20:29:36.092Z,102134.06
2022-09-04T20:32:22.445Z,102133.34
2022-09-04T20:35:13.531Z,102136.19
2022-09-04T20:37:53.835Z,102136.31
2022-09-04T20:40:37.816Z,102127.72
2022-09-04T20:43:24.432Z,102141.13
2022-09-04T20:47:58.204Z,102140.34
2022-09-04T20:52:53.515Z,102126.28
2022-09-04T20:52:54.580Z,102135.25
2022-09-04T20:56:13.338Z,102134.53
2022-09-04T21:03:11.773Z,102129.41
2022-09-04T21:03:18.656Z,102145.44
2022-09-04T21:06:17.216Z,102150.03
2022-09-04T21:09:01.276Z,102149.28
2022-09-04T21:11:51.521Z,102149.34
2022-09-04T21:14:45.419Z,102150.31
2022-09-04T21:17:29.892Z,102140.66
2022-09-04T21:20:18.941Z,102140.75
2022-09-04T21:23:21.150Z,102153.16
2022-09-04T21:26:27.677Z,102156.00
2022-09-04T21:29:35.365Z,102154.38
2022-09-04T21:32:41.655Z,102156.25
2022-09-04T21:35:25.617Z,102164.34
2022-09-04T21:38:20.677Z,102147.56
2022-09-04T21:41:32.522Z,102165.44
2022-09-04T21:44:28.396Z,102154.88
2022-09-04T21:47:28.111Z,102163.78
2022-09-04T21:50:30.602Z,102166.56
2022-09-04T21:53:42.605Z,102172.84
2022-09-04T22:02:29.835Z,102174.72
2022-09-04T22:02:42.616Z,102175.63
2022-09-04T22:03:42.597Z,102184.53
2022-09-04T22:09:03.552Z,102181.91
2022-09-04T22:13:32.584Z,102182.13
2022-09-04T22:13:38.283Z,102184.00
2022-09-04T22:17:22.546Z,102177.94
2022-09-04T22:20:43.524Z,102177.19
2022-09-04T22:23:40.498Z,102179.94
2022-09-04T22:26:38.102Z,102180.06
2022-09-04T22:30:09.117Z,102178.47
2022-09-04T22:33:05.286Z,102182.03
2022-09-04T22:36:28.133Z,102176.91
2022-09-04T22:39:44.417Z,102185.00
2022-09-04T22:42:44.093Z,102183.31
2022-09-04T22:46:04.158Z,102180.81
2022-09-04T22:49:12.345Z,102175.59
2022-09-04T22:52:28.901Z,102179.31
2022-09-04T22:55:40.509Z,102174.88
2022-09-04T22:59:21.244Z,102170.44
2022-09-04T23:02:40.758Z,102167.88
2022-09-04T23:06:16.207Z,102170.63
2022-09-04T23:13:50.103Z,102168.13
2022-09-04T23:14:05.275Z,102165.53
2022-09-04T23:16:50.090Z,102169.13
2022-09-04T23:26:36.003Z,102176.19
2022-09-04T23:26:44.991Z,102178.94
2022-09-04T23:27:00.387Z,102178.13
2022-09-04T23:30:25.131Z,102179.03
2022-09-04T23:33:10.808Z,102178.16
2022-09-04T23:35:46.826Z,102181.69
2022-09-04T23:38:39.860Z,102175.63
2022-09-04T23:41:44.666Z,102179.16
2022-09-04T23:44:42.351Z,102177.47
2022-09-04T23:47:50.626Z,102179.28
2022-09-04T23:51:03.958Z,102168.06
2022-09-04T23:54:00.125Z,102178.69
2022-09-04T23:56:47.387Z,102176.91
